createdAt,value
2017-11-30T00:02:08.362Z,56.57
2017-11-30T00:04:34.693Z,49.80
2017-11-30T00:07:01.122Z,47.13
2017-11-30T00:09:27.553Z,39.73
2017-11-30T00:11:53.938Z,40.83
2017-11-30T00:14:20.431Z,39.40
2017-11-30T00:16:46.797Z,37.23
2017-11-30T00:19:13.186Z,36.67
2017-11-30T00:21:39.601Z,34.63
2017-11-30T00:24:05.981Z,37.70
2017-11-30T00:26:32.490Z,38.67
2017-11-30T00:28:59.019Z,37.53
2017-11-30T00:31:25.457Z,34.87
2017-11-30T00:33:51.934Z,35.47
2017-11-30T00:36:18.402Z,33.07
2017-11-30T00:38:44.821Z,31.00
2017-11-30T00:41:11.450Z,33.60
2017-11-30T00:43:37.963Z,32.30
2017-11-30T00:46:04.391Z,30.27
2017-11-30T00:48:30.855Z,30.20
2017-11-30T00:50:57.319Z,30.90
2017-11-30T00:53:23.686Z,30.27
2017-11-30T00:55:50.072Z,29.97
2017-11-30T00:58:16.457Z,29.07
2017-11-30T01:00:42.785Z,30.43
2017-11-30T01:03:09.166Z,29.13
2017-11-30T01:05:35.573Z,31.20
2017-11-30T01:08:02.017Z,30.17
2017-11-30T01:10:28.435Z,31.10
2017-11-30T01:12:54.962Z,31.70
2017-11-30T01:15:21.310Z,32.03
2017-11-30T01:17:47.710Z,31.87
2017-11-30T01:20:14.088Z,29.10
2017-11-30T01:22:40.499Z,29.27
2017-11-30T01:25:06.893Z,30.50
2017-11-30T01:27:33.338Z,29.47
2017-11-30T01:29:59.671Z,29.53
2017-11-30T01:32:26.019Z,29.77
2017-11-30T01:34:52.457Z,31.03
2017-11-30T01:37:18.850Z,30.37
2017-11-30T01:39:45.194Z,29.07
2017-11-30T01:42:11.659Z,28.23
2017-11-30T01:44:37.978Z,27.67
2017-11-30T01:47:04.317Z,27.20
2017-11-30T01:49:30.728Z,29.10
2017-11-30T01:51:57.073Z,29.03
2017-11-30T01:54:23.463Z,28.70
2017-11-30T01:56:49.944Z,31.73
2017-11-30T01:59:16.453Z,29.93
2017-11-30T02:01:42.842Z,30.80
2017-11-30T02:04:09.310Z,29.70
2017-11-30T02:06:35.714Z,29.10
2017-11-30T02:09:02.162Z,28.03
2017-11-30T02:11:28.605Z,26.93
2017-11-30T02:13:54.949Z,25.97
2017-11-30T02:16:21.313Z,24.90
2017-11-30T02:18:47.669Z,25.70
2017-11-30T02:21:14.038Z,24.27
2017-11-30T02:23:40.547Z,23.70
2017-11-30T02:26:07.048Z,24.07
2017-11-30T02:28:33.638Z,23.87
2017-11-30T02:31:00.128Z,23.37
2017-11-30T02:33:26.685Z,23.93
2017-11-30T02:35:53.142Z,25.87
2017-11-30T02:38:19.606Z,24.73
2017-11-30T02:40:46.113Z,25.87
2017-11-30T02:43:12.612Z,23.87
2017-11-30T02:45:39.086Z,25.70
2017-11-30T02:48:05.625Z,25.40
2017-11-30T02:50:32.121Z,25.43
2017-11-30T02:52:58.658Z,23.60
2017-11-30T02:55:25.192Z,24.20
2017-11-30T02:57:51.624Z,24.10
2017-11-30T03:00:18.033Z,23.80
2017-11-30T03:02:44.449Z,24.33
2017-11-30T03:05:10.857Z,26.10
2017-11-30T03:07:37.463Z,26.43
2017-11-30T03:10:03.941Z,26.17
2017-11-30T03:12:30.357Z,25.13
2017-11-30T03:14:56.738Z,24.90
2017-11-30T03:17:23.173Z,25.50
2017-11-30T03:19:49.547Z,26.40
2017-11-30T03:22:15.935Z,25.93
2017-11-30T03:24:42.386Z,27.67
2017-11-30T03:27:08.738Z,31.97
2017-11-30T03:29:35.123Z,32.80
2017-11-30T03:32:01.584Z,29.37
2017-11-30T03:34:27.959Z,27.97
2017-11-30T03:36:54.391Z,29.97
2017-11-30T03:39:20.806Z,30.73
2017-11-30T03:41:47.186Z,32.10
2017-11-30T03:44:13.639Z,33.60
2017-11-30T03:46:40.060Z,34.93
2017-11-30T03:49:06.506Z,33.50
2017-11-30T03:51:32.883Z,35.30
2017-11-30T03:53:59.262Z,33.97
2017-11-30T03:56:25.658Z,32.40
2017-11-30T03:58:52.034Z,31.53
2017-11-30T04:01:18.550Z,32.53
2017-11-30T04:03:45.038Z,33.13
2017-11-30T04:06:11.421Z,32.80
2017-11-30T04:08:37.830Z,33.03
2017-11-30T04:11:04.221Z,32.37
2017-11-30T04:13:30.538Z,32.53
2017-11-30T04:15:57.017Z,33.97
2017-11-30T04:18:23.426Z,32.47
2017-11-30T04:20:49.802Z,32.90
2017-11-30T04:23:16.246Z,33.87
2017-11-30T04:25:42.594Z,31.30
2017-11-30T04:28:09.902Z,31.03
2017-11-30T04:30:36.549Z,29.63
2017-11-30T04:33:02.952Z,30.43
2017-11-30T04:35:29.376Z,32.63
2017-11-30T04:37:55.756Z,33.47
2017-11-30T04:40:22.113Z,32.83
2017-11-30T04:42:48.562Z,34.20
2017-11-30T04:45:15.049Z,38.07
2017-11-30T04:47:41.410Z,39.43
2017-11-30T04:50:07.782Z,36.00
2017-11-30T04:52:34.162Z,34.87
2017-11-30T04:55:00.585Z,30.00
2017-11-30T04:57:27.034Z,27.70
2017-11-30T04:59:53.533Z,27.47
2017-11-30T05:02:19.878Z,28.90
2017-11-30T05:04:46.319Z,28.17
2017-11-30T05:07:12.792Z,28.13
2017-11-30T05:09:40.303Z,29.77
2017-11-30T05:12:06.718Z,32.07
2017-11-30T05:14:33.122Z,33.10
2017-11-30T05:16:59.497Z,33.03
2017-11-30T05:19:25.984Z,31.87
2017-11-30T05:21:52.388Z,34.27
2017-11-30T05:24:18.849Z,37.83
2017-11-30T05:26:45.492Z,35.60
2017-11-30T05:29:11.922Z,36.30
2017-11-30T05:31:38.271Z,49.83
2017-11-30T05:34:04.609Z,48.37
2017-11-30T05:36:31.016Z,41.87
2017-11-30T05:38:57.346Z,35.17
2017-11-30T05:41:23.701Z,57.83
2017-11-30T05:43:50.098Z,43.97
2017-11-30T05:46:16.426Z,37.73
2017-11-30T05:48:42.774Z,41.60
2017-11-30T05:51:09.184Z,40.93
2017-11-30T05:53:36.590Z,41.50
2017-11-30T05:56:02.942Z,41.40
2017-11-30T05:58:29.302Z,41.70
2017-11-30T06:00:55.659Z,40.70
2017-11-30T06:03:22.017Z,39.93
2017-11-30T06:05:48.403Z,40.83
2017-11-30T06:08:14.768Z,40.13
2017-11-30T06:10:41.125Z,42.83
2017-11-30T06:13:07.525Z,46.70
2017-11-30T06:15:33.957Z,49.20
2017-11-30T06:18:00.310Z,47.43
2017-11-30T06:20:26.725Z,48.20
2017-11-30T06:22:53.042Z,41.80
2017-11-30T06:25:19.680Z,45.53
2017-11-30T06:27:46.322Z,44.33
2017-11-30T06:30:12.651Z,44.77
2017-11-30T06:32:39.001Z,48.63
2017-11-30T06:35:05.417Z,55.27
2017-11-30T06:37:31.834Z,61.67
2017-11-30T06:39:58.161Z,61.47
2017-11-30T06:42:24.569Z,61.03
2017-11-30T06:44:50.911Z,64.33
2017-11-30T06:47:17.254Z,62.80
2017-11-30T06:49:43.610Z,59.03
2017-11-30T06:52:09.958Z,70.97
2017-11-30T06:54:36.326Z,85.93
2017-11-30T06:57:02.972Z,78.87
2017-11-30T06:59:29.306Z,82.93
2017-11-30T07:01:55.633Z,91.23
2017-11-30T07:04:22.101Z,97.97
2017-11-30T07:06:48.470Z,92.33
2017-11-30T07:09:14.846Z,72.17
2017-11-30T07:11:41.226Z,67.67
2017-11-30T07:14:07.602Z,60.67
2017-11-30T07:16:33.982Z,66.33
2017-11-30T07:19:00.401Z,63.33
2017-11-30T07:21:26.731Z,83.23
2017-11-30T07:23:53.081Z,81.33
2017-11-30T07:26:19.526Z,79.93
2017-11-30T07:28:45.897Z,65.00
2017-11-30T07:31:12.226Z,67.67
2017-11-30T07:33:38.602Z,74.73
2017-11-30T07:36:04.948Z,66.53
2017-11-30T07:38:31.294Z,76.07
2017-11-30T07:40:57.664Z,73.53
2017-11-30T07:43:24.009Z,67.23
2017-11-30T07:45:50.350Z,67.67
2017-11-30T07:48:16.750Z,74.63
2017-11-30T07:50:44.659Z,71.63
2017-11-30T07:53:11.767Z,61.93
2017-11-30T07:55:38.184Z,54.37
2017-11-30T07:58:04.578Z,55.30
2017-11-30T08:00:30.939Z,55.53
2017-11-30T08:02:57.317Z,58.27
2017-11-30T08:05:23.710Z,56.73
2017-11-30T08:07:50.083Z,55.53
2017-11-30T08:10:16.642Z,49.70
2017-11-30T08:12:43.034Z,49.27
2017-11-30T08:15:09.566Z,48.30
2017-11-30T08:17:37.291Z,46.17
2017-11-30T08:20:03.685Z,53.50
2017-11-30T08:22:30.129Z,50.37
2017-11-30T08:24:56.530Z,50.03
2017-11-30T08:27:22.970Z,50.27
2017-11-30T08:29:49.389Z,48.53
2017-11-30T08:32:15.838Z,49.67
2017-11-30T08:34:42.234Z,49.00
2017-11-30T08:37:08.602Z,47.80
2017-11-30T08:39:35.036Z,48.90
2017-11-30T08:42:01.429Z,56.00
2017-11-30T08:44:27.925Z,57.97
2017-11-30T08:46:54.432Z,59.47
2017-11-30T08:49:20.938Z,74.07
2017-11-30T08:51:47.370Z,51.17
2017-11-30T08:54:13.829Z,65.77
2017-11-30T08:56:40.319Z,72.40
2017-11-30T08:59:06.698Z,88.97
2017-11-30T09:01:33.126Z,83.93
2017-11-30T09:03:59.566Z,52.70
2017-11-30T09:06:25.933Z,45.10
2017-11-30T09:08:52.332Z,46.07
2017-11-30T09:11:18.665Z,32.23
2017-11-30T09:13:45.053Z,30.93
2017-11-30T09:16:11.618Z,24.77
2017-11-30T09:18:38.058Z,18.17
2017-11-30T09:21:04.434Z,21.17
2017-11-30T09:23:30.798Z,29.87
2017-11-30T09:25:57.230Z,25.40
2017-11-30T09:28:23.634Z,28.23
2017-11-30T09:30:50.115Z,22.57
2017-11-30T09:33:16.635Z,22.17
2017-11-30T09:35:43.037Z,21.23
2017-11-30T09:38:09.609Z,17.17
2017-11-30T09:40:35.969Z,17.97
2017-11-30T09:43:02.325Z,16.00
2017-11-30T09:45:28.892Z,17.83
2017-11-30T09:47:55.241Z,13.50
2017-11-30T09:50:21.693Z,14.23
2017-11-30T09:52:48.208Z,12.20
2017-11-30T09:55:15.223Z,13.33
2017-11-30T09:57:41.835Z,10.97
2017-11-30T10:00:08.289Z,11.00
2017-11-30T10:02:34.881Z,8.70
2017-11-30T10:05:01.300Z,9.07
2017-11-30T10:07:27.710Z,10.97
2017-11-30T10:09:54.086Z,11.17
2017-11-30T10:12:20.470Z,11.20
2017-11-30T10:14:46.867Z,10.07
2017-11-30T10:17:13.558Z,10.13
2017-11-30T10:19:39.914Z,11.77
2017-11-30T10:22:06.343Z,13.90
2017-11-30T10:24:32.747Z,11.00
2017-11-30T10:26:59.124Z,13.57
2017-11-30T10:29:25.509Z,12.60
2017-11-30T10:31:51.878Z,12.83
2017-11-30T10:34:18.235Z,17.00
2017-11-30T10:36:44.642Z,10.50
2017-11-30T10:39:11.030Z,12.03
2017-11-30T10:41:37.365Z,13.07
2017-11-30T10:44:03.795Z,11.87
2017-11-30T10:46:30.143Z,12.00
2017-11-30T10:48:56.494Z,12.57
2017-11-30T10:51:22.888Z,13.40
2017-11-30T10:53:49.284Z,14.63
2017-11-30T10:56:15.785Z,12.60
2017-11-30T10:58:42.207Z,10.60
2017-11-30T11:01:08.567Z,10.93
2017-11-30T11:03:35.022Z,26.40
2017-11-30T11:06:01.457Z,31.37
2017-11-30T11:08:27.801Z,15.57
2017-11-30T11:10:54.298Z,14.03
2017-11-30T11:13:20.702Z,13.47
2017-11-30T11:15:47.217Z,13.70
2017-11-30T11:18:13.622Z,10.93
2017-11-30T11:20:40.030Z,10.20
2017-11-30T11:23:06.395Z,9.67
2017-11-30T11:25:32.781Z,9.97
2017-11-30T11:27:59.178Z,8.90
2017-11-30T11:30:25.584Z,8.73
2017-11-30T11:32:52.282Z,106.07
2017-11-30T11:35:18.779Z,115.70
2017-11-30T11:37:45.251Z,11.17
2017-11-30T11:40:11.783Z,13.80
2017-11-30T11:42:38.228Z,13.73
2017-11-30T11:45:04.622Z,12.40
2017-11-30T11:47:31.030Z,11.97
2017-11-30T11:49:57.438Z,10.40
2017-11-30T11:52:23.996Z,8.77
2017-11-30T11:54:50.428Z,9.03
2017-11-30T11:57:16.938Z,8.37
2017-11-30T11:59:43.294Z,9.40
2017-11-30T12:02:09.672Z,7.63
2017-11-30T12:04:36.062Z,8.27
2017-11-30T12:07:02.424Z,8.23
2017-11-30T12:09:28.768Z,8.43
2017-11-30T12:11:55.186Z,8.93
2017-11-30T12:14:21.594Z,7.80
2017-11-30T12:16:47.970Z,8.63
2017-11-30T12:19:14.370Z,8.07
2017-11-30T12:21:40.761Z,8.73
2017-11-30T12:24:07.206Z,10.37
2017-11-30T12:26:33.798Z,10.40
2017-11-30T12:29:00.208Z,8.70
2017-11-30T12:31:26.622Z,11.93
2017-11-30T12:33:53.037Z,9.00
2017-11-30T12:36:19.424Z,8.87
2017-11-30T12:38:45.806Z,7.80
2017-11-30T12:41:12.227Z,8.33
2017-11-30T12:43:38.594Z,9.97
2017-11-30T12:46:05.061Z,8.27
2017-11-30T12:48:31.464Z,9.40
2017-11-30T12:50:57.833Z,12.67
2017-11-30T12:53:24.197Z,11.37
2017-11-30T12:55:50.721Z,11.17
2017-11-30T12:58:17.097Z,9.87
2017-11-30T13:00:43.500Z,10.60
2017-11-30T13:03:10.852Z,12.03
2017-11-30T13:05:37.409Z,15.17
2017-11-30T13:08:03.809Z,11.23
2017-11-30T13:10:30.200Z,9.90
2017-11-30T13:12:56.602Z,8.97
2017-11-30T13:15:23.054Z,8.97
2017-11-30T13:17:49.686Z,9.03
2017-11-30T13:20:16.157Z,11.17
2017-11-30T13:22:42.513Z,11.63
2017-11-30T13:25:08.945Z,11.43
2017-11-30T13:27:35.297Z,10.60
2017-11-30T13:30:01.685Z,12.27
2017-11-30T13:32:28.132Z,8.70
2017-11-30T13:34:54.523Z,8.37
2017-11-30T13:37:20.909Z,9.70
2017-11-30T13:39:47.341Z,9.30
2017-11-30T13:42:13.693Z,9.27
2017-11-30T13:44:40.139Z,8.33
2017-11-30T13:47:06.651Z,9.50
2017-11-30T13:49:33.009Z,7.90
2017-11-30T13:51:59.337Z,7.97
2017-11-30T13:54:25.732Z,9.10
2017-11-30T13:56:52.072Z,10.30
2017-11-30T13:59:18.527Z,10.23
2017-11-30T14:01:45.063Z,11.40
2017-11-30T14:04:11.552Z,9.83
2017-11-30T14:06:37.904Z,11.37
2017-11-30T14:09:04.324Z,11.87
2017-11-30T14:11:30.664Z,14.37
2017-11-30T14:13:57.018Z,11.43
2017-11-30T14:16:23.384Z,11.83
2017-11-30T14:18:49.794Z,10.90
2017-11-30T14:21:16.394Z,10.97
2017-11-30T14:23:42.834Z,12.67
2017-11-30T14:26:09.277Z,8.93
2017-11-30T14:28:35.725Z,10.23
2017-11-30T14:31:02.136Z,9.43
2017-11-30T14:33:28.753Z,9.93
2017-11-30T14:35:55.108Z,8.60
2017-11-30T14:38:21.521Z,9.73
2017-11-30T14:40:47.872Z,11.03
2017-11-30T14:43:14.233Z,11.10
2017-11-30T14:45:40.627Z,12.27
2017-11-30T14:48:06.985Z,13.03
2017-11-30T14:50:33.371Z,14.40
2017-11-30T14:52:59.750Z,16.70
2017-11-30T14:55:26.201Z,22.53
2017-11-30T14:57:52.618Z,22.23
2017-11-30T15:00:18.985Z,15.13
2017-11-30T15:02:45.401Z,14.43
2017-11-30T15:05:11.746Z,11.57
2017-11-30T15:07:38.188Z,8.90
2017-11-30T15:10:04.549Z,8.40
2017-11-30T15:12:30.916Z,9.10
2017-11-30T15:14:58.667Z,9.63
2017-11-30T15:17:25.018Z,10.27
2017-11-30T15:19:51.476Z,9.40
2017-11-30T15:22:18.088Z,9.97
2017-11-30T15:24:44.567Z,9.30
2017-11-30T15:27:10.926Z,12.13
2017-11-30T15:29:37.383Z,11.40
2017-11-30T15:32:03.711Z,11.80
2017-11-30T15:34:30.296Z,12.40
2017-11-30T15:36:56.728Z,12.23
2017-11-30T15:39:23.093Z,13.13
2017-11-30T15:41:49.435Z,11.73
2017-11-30T15:44:15.847Z,13.70
2017-11-30T15:46:42.268Z,12.60
2017-11-30T15:49:08.641Z,12.67
2017-11-30T15:51:35.029Z,14.10
2017-11-30T15:54:01.383Z,13.13
2017-11-30T15:56:27.764Z,12.00
2017-11-30T15:58:54.253Z,12.50
2017-11-30T16:01:20.657Z,11.53
2017-11-30T16:03:47.012Z,13.43
2017-11-30T16:06:13.402Z,14.97
2017-11-30T16:08:39.776Z,13.23
2017-11-30T16:11:06.130Z,13.67
2017-11-30T16:13:32.559Z,13.50
2017-11-30T16:15:58.916Z,14.00
2017-11-30T16:18:25.253Z,12.53
2017-11-30T16:20:51.617Z,14.73
2017-11-30T16:23:17.985Z,12.57
2017-11-30T16:25:44.400Z,14.00
2017-11-30T16:28:10.936Z,12.90
2017-11-30T16:30:37.327Z,10.90
2017-11-30T16:33:03.705Z,14.87
2017-11-30T16:35:30.203Z,12.70
2017-11-30T16:37:56.588Z,11.80
2017-11-30T16:40:22.954Z,42.93
2017-11-30T16:42:49.392Z,33.70
2017-11-30T16:45:16.086Z,15.03
2017-11-30T16:47:42.575Z,19.13
2017-11-30T16:50:08.984Z,12.30
2017-11-30T16:52:35.387Z,12.83
2017-11-30T16:55:01.805Z,13.23
2017-11-30T16:57:28.259Z,13.97
2017-11-30T16:59:54.591Z,17.17
2017-11-30T17:02:20.948Z,9.53
2017-11-30T17:04:47.322Z,11.57
2017-11-30T17:07:13.716Z,12.33
2017-11-30T17:09:40.201Z,10.80
2017-11-30T17:12:06.632Z,12.53
2017-11-30T17:14:33.269Z,11.97
2017-11-30T17:16:59.849Z,11.27
2017-11-30T17:19:26.283Z,12.93
2017-11-30T17:21:52.692Z,11.90
2017-11-30T17:24:19.108Z,11.67
2017-11-30T17:26:45.716Z,13.23
2017-11-30T17:29:12.202Z,14.03
2017-11-30T17:31:38.615Z,10.90
2017-11-30T17:34:04.995Z,11.50
2017-11-30T17:36:31.421Z,11.87
2017-11-30T17:38:57.812Z,12.00
2017-11-30T17:41:24.573Z,11.13
2017-11-30T17:43:51.424Z,11.63
2017-11-30T17:46:21.859Z,13.63
2017-11-30T17:48:49.525Z,13.17
2017-11-30T17:51:16.630Z,11.10
2017-11-30T17:53:45.804Z,12.80
2017-11-30T17:56:15.985Z,9.93
2017-11-30T17:58:43.800Z,9.67
2017-11-30T18:01:12.946Z,10.27
2017-11-30T18:03:41.318Z,10.13
2017-11-30T18:06:09.601Z,9.53
2017-11-30T18:08:38.515Z,9.30
2017-11-30T18:11:07.664Z,9.50
2017-11-30T18:13:40.847Z,8.67
2017-11-30T18:16:10.494Z,8.67
2017-11-30T18:18:44.297Z,8.67
2017-11-30T18:21:15.498Z,10.10
2017-11-30T18:23:46.391Z,9.93
2017-11-30T18:26:15.574Z,9.77
2017-11-30T18:28:45.029Z,9.30
2017-11-30T18:31:13.568Z,9.30
2017-11-30T18:33:46.731Z,9.33
2017-11-30T18:36:15.737Z,7.47
2017-11-30T18:38:46.039Z,8.33
2017-11-30T18:41:13.072Z,8.20
2017-11-30T18:43:41.215Z,9.27
2017-11-30T18:46:08.768Z,9.27
2017-11-30T18:48:36.444Z,8.10
2017-11-30T18:51:04.084Z,9.23
2017-11-30T18:53:34.378Z,9.13
2017-11-30T18:56:01.162Z,8.23
2017-11-30T18:58:27.611Z,9.37
2017-11-30T19:00:54.047Z,8.83
2017-11-30T19:03:20.455Z,11.10
2017-11-30T19:05:46.889Z,9.93
2017-11-30T19:08:13.272Z,9.20
2017-11-30T19:10:39.623Z,8.47
2017-11-30T19:13:06.010Z,8.17
2017-11-30T19:15:32.392Z,8.03
2017-11-30T19:17:58.755Z,8.00
2017-11-30T19:20:25.198Z,8.90
2017-11-30T19:22:51.588Z,7.07
2017-11-30T19:25:17.932Z,8.97
2017-11-30T19:27:44.428Z,8.23
2017-11-30T19:30:10.923Z,9.60
2017-11-30T19:32:37.320Z,7.40
2017-11-30T19:35:03.660Z,8.63
2017-11-30T19:37:30.259Z,7.63
2017-11-30T19:39:57.356Z,8.30
2017-11-30T19:42:24.128Z,7.90
2017-11-30T19:44:51.496Z,7.70
2017-11-30T19:47:18.149Z,7.57
2017-11-30T19:49:44.488Z,7.27
2017-11-30T19:52:10.914Z,7.33
2017-11-30T19:54:37.305Z,7.37
2017-11-30T19:57:03.655Z,7.80
2017-11-30T19:59:30.049Z,9.57
2017-11-30T20:01:56.401Z,8.47
2017-11-30T20:04:22.766Z,9.73
2017-11-30T20:06:49.204Z,9.70
2017-11-30T20:09:16.260Z,9.37
2017-11-30T20:11:42.648Z,7.00
2017-11-30T20:14:09.080Z,9.53
2017-11-30T20:16:35.428Z,8.23
2017-11-30T20:19:01.883Z,7.87
2017-11-30T20:21:28.311Z,6.83
2017-11-30T20:23:54.777Z,8.57
2017-11-30T20:26:21.112Z,7.00
2017-11-30T20:28:47.494Z,8.00
2017-11-30T20:31:13.860Z,6.53
2017-11-30T20:33:40.272Z,7.67
2017-11-30T20:36:06.633Z,8.17
2017-11-30T20:38:32.953Z,7.77
2017-11-30T20:40:59.316Z,7.63
2017-11-30T20:43:25.681Z,6.10
2017-11-30T20:45:52.046Z,6.50
2017-11-30T20:48:18.553Z,7.43
2017-11-30T20:50:44.953Z,7.43
2017-11-30T20:53:11.336Z,7.00
2017-11-30T20:55:38.287Z,6.77
2017-11-30T20:58:04.904Z,6.17
2017-11-30T21:00:31.233Z,6.10
2017-11-30T21:02:57.607Z,7.00
2017-11-30T21:05:24.040Z,6.87
2017-11-30T21:07:50.389Z,6.70
2017-11-30T21:10:16.724Z,6.83
2017-11-30T21:12:43.172Z,6.37
2017-11-30T21:15:09.545Z,6.70
2017-11-30T21:17:35.928Z,6.97
2017-11-30T21:20:02.377Z,6.73
2017-11-30T21:22:28.807Z,6.17
2017-11-30T21:24:55.200Z,5.27
2017-11-30T21:27:21.614Z,5.80
2017-11-30T21:29:49.073Z,7.03
2017-11-30T21:32:15.423Z,6.57
2017-11-30T21:34:41.791Z,5.97
2017-11-30T21:37:08.162Z,7.10
2017-11-30T21:39:34.562Z,6.40
2017-11-30T21:42:01.233Z,6.53
2017-11-30T21:44:27.566Z,6.13
2017-11-30T21:46:54.022Z,6.87
2017-11-30T21:49:20.406Z,6.93
2017-11-30T21:51:46.952Z,6.80
2017-11-30T21:54:13.330Z,6.20
2017-11-30T21:56:39.760Z,7.23
2017-11-30T21:59:06.104Z,6.47
2017-11-30T22:01:32.456Z,6.60
2017-11-30T22:03:58.953Z,6.53
2017-11-30T22:06:25.283Z,6.43
2017-11-30T22:08:51.697Z,6.83
2017-11-30T22:11:18.080Z,6.27
2017-11-30T22:13:44.424Z,6.13
2017-11-30T22:16:10.948Z,6.07
2017-11-30T22:18:37.400Z,6.27
2017-11-30T22:21:03.808Z,5.87
2017-11-30T22:23:30.159Z,5.60
2017-11-30T22:25:56.622Z,6.07
2017-11-30T22:28:23.022Z,5.73
2017-11-30T22:30:49.392Z,6.53
2017-11-30T22:33:15.853Z,6.47
2017-11-30T22:35:42.224Z,6.67
2017-11-30T22:38:08.580Z,6.37
2017-11-30T22:40:35.020Z,5.47
2017-11-30T22:43:01.419Z,5.60
2017-11-30T22:45:27.784Z,6.40
2017-11-30T22:47:54.191Z,7.33
2017-11-30T22:50:20.569Z,6.40
2017-11-30T22:52:46.991Z,6.50
2017-11-30T22:55:13.412Z,6.73
2017-11-30T22:57:39.803Z,6.63
2017-11-30T23:00:06.157Z,6.63
2017-11-30T23:02:32.738Z,5.57
2017-11-30T23:04:59.149Z,6.13
2017-11-30T23:07:25.489Z,6.27
2017-11-30T23:09:51.890Z,6.23
2017-11-30T23:12:18.244Z,6.40
2017-11-30T23:14:44.662Z,7.40
2017-11-30T23:17:11.012Z,6.63
2017-11-30T23:19:37.442Z,6.60
2017-11-30T23:22:03.816Z,7.40
2017-11-30T23:24:30.238Z,6.93
2017-11-30T23:26:56.612Z,6.40
2017-11-30T23:29:22.987Z,7.00
2017-11-30T23:31:49.395Z,6.73
2017-11-30T23:34:15.796Z,5.53
2017-11-30T23:36:42.172Z,5.73
2017-11-30T23:39:08.624Z,6.43
2017-11-30T23:41:35.056Z,5.90
2017-11-30T23:44:01.441Z,6.60
2017-11-30T23:46:27.922Z,5.83
2017-11-30T23:48:54.268Z,5.87
2017-11-30T23:51:20.617Z,6.10
2017-11-30T23:53:46.987Z,5.70
2017-11-30T23:56:13.336Z,6.40
2017-11-30T23:58:39.660Z,6.63
